White Sand, Mississippi
Current Conditions -  °F | °C
As of 6:58 PM on Tuesday 27 Jan 2015 (Local Time) from KCBM Reporting Station
Clear Clear  
Wind Chill: 44°   Ceiling: Unl
Heat Index: 44°   Visibility: 10mi
Dew Point: 35°   Wind: 2mph
Humidity: 69%   Direction: 360°N
Pressure: 30.14"   Gusts: NA
Location:  33.6943°N, 88.3042°W
Report Text: KCBM 280058Z AUTO 36002KT 10SM CLR 07/02 A3014 RMK AO2 SLP210 T00690015 $
Loading
Personal Weather Stations






























Interactive Weather Map New forecast layout! Learn more

10-Day Weather Forecast

Advertisements
Track Severe Weather on mobile